1884 NOT_NAMED (1884215N13130)


IBTrACS version v04r00. Visit IBTrACS website for data access.
Please direct all questions to the IBTrACS Q and A forum

Storm track - Intensity - Wind Radii - Intensity Data - Source Data - All data

Summary Information

Storm ID 1884215N13130
Start Aug 1 16Z
End Aug 9 04Z
ATCF IDs
Track status Best track data.

Storm track plot

Map of storm track

Intensity plots

No Intensity information for this storm


Radial wind information

No radial wind information for this storm


Position and Intensity Table

BASIN ISO_TIME_________ NATURE LAT LON
degrees north degrees east
WP 1884-08-01 16:00:00 NR 12.70 129.70
WP 18:00:00 NR 13.14 129.09
WP 21:00:00 NR 13.78 128.21
WP 1884-08-02 00:00:00 NR 14.37 127.42
WP 03:00:00 NR 14.86 126.77
WP 04:00:00 NR 15.00 126.60
WP 06:00:00 NR 15.24 126.33
WP 09:00:00 NR 15.51 126.06
WP 12:00:00 NR 15.73 125.92
WP 15:00:00 NR 15.93 125.83
WP 16:00:00 NR 16.00 125.80
WP 18:00:00 NR 16.17 125.70
WP 21:00:00 NR 16.44 125.57
WP 1884-08-03 00:00:00 NR 16.72 125.45
WP 03:00:00 NR 17.00 125.34
WP 04:00:00 NR 17.10 125.30
WP 06:00:00 NR 17.29 125.21
WP 09:00:00 NR 17.59 125.07
WP 12:00:00 NR 17.89 124.94
WP 15:00:00 NR 18.20 124.83
WP 16:00:00 NR 18.30 124.80
WP 18:00:00 NR 18.50 124.75
WP 21:00:00 NR 18.81 124.69
WP 1884-08-04 00:00:00 NR 19.14 124.64
WP 03:00:00 NR 19.48 124.61
WP 04:00:00 NR 19.60 124.60
WP 06:00:00 NR 19.86 124.57
WP 09:00:00 NR 20.28 124.54
WP 12:00:00 NR 20.69 124.51
WP 15:00:00 NR 21.08 124.50
WP 16:00:00 NR 21.20 124.50
WP 18:00:00 NR 21.41 124.51
WP 21:00:00 NR 21.70 124.53
WP 1884-08-05 00:00:00 NR 21.97 124.56
WP 03:00:00 NR 22.22 124.59
WP 04:00:00 NR 22.30 124.60
WP 06:00:00 NR 22.47 124.61
WP 09:00:00 NR 22.72 124.63
WP 12:00:00 NR 22.96 124.65
WP 15:00:00 NR 23.21 124.69
WP 16:00:00 NR 23.30 124.70
WP 18:00:00 NR 23.48 124.74
WP 21:00:00 NR 23.76 124.81
WP 1884-08-06 00:00:00 NR 24.04 124.89
WP 03:00:00 NR 24.31 124.97
WP 04:00:00 NR 24.40 125.00
WP 06:00:00 NR 24.56 125.05
WP 09:00:00 NR 24.80 125.13
WP 12:00:00 NR 25.02 125.21
WP 15:00:00 NR 25.23 125.28
WP 16:00:00 NR 25.30 125.30
WP 18:00:00 NR 25.44 125.33
WP 21:00:00 NR 25.64 125.38
WP 1884-08-07 00:00:00 NR 25.84 125.42
WP 03:00:00 NR 26.03 125.48
WP 04:00:00 NR 26.10 125.50
WP 06:00:00 NR 26.23 125.56
WP 09:00:00 NR 26.43 125.65
WP 12:00:00 NR 26.63 125.76
WP 15:00:00 NR 26.83 125.86
WP 16:00:00 NR 26.90 125.90
WP 18:00:00 NR 27.03 125.96
WP 21:00:00 NR 27.23 126.06
WP 1884-08-08 00:00:00 NR 27.43 126.16
WP 03:00:00 NR 27.63 126.26
WP 04:00:00 NR 27.70 126.30
WP 06:00:00 NR 27.84 126.37
WP 09:00:00 NR 28.07 126.48
WP 12:00:00 NR 28.29 126.60
WP 15:00:00 NR 28.52 126.75
WP 16:00:00 NR 28.60 126.80
WP 18:00:00 NR 28.75 126.91
WP 21:00:00 NR 28.98 127.10
WP 1884-08-09 00:00:00 NR 29.20 127.31
WP 03:00:00 NR 29.43 127.53
WP 04:00:00 NR 29.50 127.60

Source Information

Agency Information
USA
TOKYO
CMA
HKO
NEWDELHI
REUNION
BOM
NADI
WELLINGTON
DS824
TD9636 cons_worldwide_trop_cyclone_18710101-19891231-003:Line=55
TD9635
NEUMANN
MLC

All available IBTrACS Data

SEASON BASIN SUBBASIN ISO_TIME_________ NATURE LAT LON DIST2LAND LANDFALL IFLAG USA SSHS TD9636 LAT TD9636 LON TD9636 STAGE STORM SPEED STORM DIR
Year degrees north degrees east km km 1 degrees north degrees east kts degrees
1884 WP MM 1884-08-01 16:00:00 NR 12.70 129.70 459 403 __________O___ -1 12.70 129.70 7 22 307
1884 WP MM 18:00:00 NR 13.14 129.09 403 343 __________P___ -1 13.14 129.09 7 22 307
1884 WP MM 21:00:00 NR 13.78 128.21 343 319 __________P___ -1 13.78 128.21 7 20 307
1884 WP MM 1884-08-02 00:00:00 NR 14.37 127.42 319 277 __________P___ -1 14.37 127.42 7 18 308
1884 WP MM 03:00:00 NR 14.86 126.77 281 267 __________P___ -1 14.86 126.77 7 15 309
1884 WP MM 04:00:00 NR 15.00 126.60 267 251 __________O___ -1 15.00 126.60 7 11 311
1884 WP MM 06:00:00 NR 15.24 126.33 251 248 __________P___ -1 15.24 126.33 7 9 315
1884 WP MM 09:00:00 NR 15.51 126.06 256 248 __________P___ -1 15.51 126.06 7 6 321
1884 WP MM 12:00:00 NR 15.73 125.92 256 256 __________P___ -1 15.73 125.92 7 5 332
1884 WP MM 15:00:00 NR 15.93 125.83 266 266 __________P___ -1 15.93 125.83 7 4 338
1884 WP MM 16:00:00 NR 16.00 125.80 275 275 __________O___ -1 16.00 125.80 7 6 333
1884 WP MM 18:00:00 NR 16.17 125.70 288 288 __________P___ -1 16.17 125.70 7 6 333
1884 WP MM 21:00:00 NR 16.44 125.57 302 308 __________P___ -1 16.44 125.57 7 6 336
1884 WP MM 1884-08-03 00:00:00 NR 16.72 125.45 320 297 __________P___ -1 16.72 125.45 7 6 339
1884 WP MM 03:00:00 NR 17.00 125.34 297 297 __________P___ -1 17.00 125.34 7 6 340
1884 WP MM 04:00:00 NR 17.10 125.30 297 287 __________O___ -1 17.10 125.30 7 6 336
1884 WP MM 06:00:00 NR 17.29 125.21 288 279 __________P___ -1 17.29 125.21 7 6 336
1884 WP MM 09:00:00 NR 17.59 125.07 284 273 __________P___ -1 17.59 125.07 7 7 337
1884 WP MM 12:00:00 NR 17.89 124.94 273 264 __________P___ -1 17.89 124.94 7 7 339
1884 WP MM 15:00:00 NR 18.20 124.83 264 263 __________P___ -1 18.20 124.83 7 7 342
1884 WP MM 16:00:00 NR 18.30 124.80 263 253 __________O___ -1 18.30 124.80 7 6 346
1884 WP MM 18:00:00 NR 18.50 124.75 253 253 __________P___ -1 18.50 124.75 7 6 348
1884 WP MM 21:00:00 NR 18.81 124.69 256 254 __________P___ -1 18.81 124.69 7 6 351
1884 WP MM 1884-08-04 00:00:00 NR 19.14 124.64 254 258 __________P___ -1 19.14 124.64 7 7 354
1884 WP MM 03:00:00 NR 19.48 124.61 271 271 __________P___ -1 19.48 124.61 7 7 354
1884 WP MM 04:00:00 NR 19.60 124.60 276 276 __________O___ -1 19.60 124.60 7 8 355
1884 WP MM 06:00:00 NR 19.86 124.57 294 294 __________P___ -1 19.86 124.57 7 8 355
1884 WP MM 09:00:00 NR 20.28 124.54 313 313 __________P___ -1 20.28 124.54 7 8 356
1884 WP MM 12:00:00 NR 20.69 124.51 345 345 __________P___ -1 20.69 124.51 7 8 357
1884 WP MM 15:00:00 NR 21.08 124.50 379 379 __________P___ -1 21.08 124.50 7 8 0
1884 WP MM 16:00:00 NR 21.20 124.50 380 371 __________O___ -1 21.20 124.50 7 7 4
1884 WP MM 18:00:00 NR 21.41 124.51 371 354 __________P___ -1 21.41 124.51 7 6 2
1884 WP MM 21:00:00 NR 21.70 124.53 354 345 __________P___ -1 21.70 124.53 7 6 4
1884 WP MM 1884-08-05 00:00:00 NR 21.97 124.56 350 343 __________P___ -1 21.97 124.56 7 5 6
1884 WP MM 03:00:00 NR 22.22 124.59 343 340 __________P___ -1 22.22 124.59 7 5 6
1884 WP MM 04:00:00 NR 22.30 124.60 340 334 __________O___ -1 22.30 124.60 7 5 6
1884 WP MM 06:00:00 NR 22.47 124.61 334 330 __________P___ -1 22.47 124.61 7 5 3
1884 WP MM 09:00:00 NR 22.72 124.63 330 321 __________P___ -1 22.72 124.63 7 5 4
1884 WP MM 12:00:00 NR 22.96 124.65 330 319 __________P___ -1 22.96 124.65 7 5 7
1884 WP MM 15:00:00 NR 23.21 124.69 319 314 __________P___ -1 23.21 124.69 7 5 7
1884 WP MM 16:00:00 NR 23.30 124.70 314 305 __________O___ -1 23.30 124.70 7 5 12
1884 WP MM 18:00:00 NR 23.48 124.74 305 304 __________P___ -1 23.48 124.74 7 6 12
1884 WP MM 21:00:00 NR 23.76 124.81 304 301 __________P___ -1 23.76 124.81 7 6 14
1884 WP MM 1884-08-06 00:00:00 NR 24.04 124.89 309 305 __________P___ -1 24.04 124.89 7 6 15
1884 WP MM 03:00:00 NR 24.31 124.97 312 310 __________P___ -1 24.31 124.97 7 6 16
1884 WP MM 04:00:00 NR 24.40 125.00 310 305 __________O___ -1 24.40 125.00 7 5 15
1884 WP MM 06:00:00 NR 24.56 125.05 315 313 __________P___ -1 24.56 125.05 7 5 17
1884 WP MM 09:00:00 NR 24.80 125.13 313 313 __________P___ -1 24.80 125.13 7 5 17
1884 WP MM 12:00:00 NR 25.02 125.21 322 322 __________P___ -1 25.02 125.21 7 5 17
1884 WP MM 15:00:00 NR 25.23 125.28 332 332 __________P___ -1 25.23 125.28 7 4 17
1884 WP MM 16:00:00 NR 25.30 125.30 333 333 __________O___ -1 25.30 125.30 7 4 16
1884 WP MM 18:00:00 NR 25.44 125.33 334 336 __________P___ -1 25.44 125.33 7 4 11
1884 WP MM 21:00:00 NR 25.64 125.38 348 350 __________P___ -1 25.64 125.38 7 4 11
1884 WP MM 1884-08-07 00:00:00 NR 25.84 125.42 352 352 __________P___ -1 25.84 125.42 7 4 13
1884 WP MM 03:00:00 NR 26.03 125.48 368 368 __________P___ -1 26.03 125.48 7 4 16
1884 WP MM 04:00:00 NR 26.10 125.50 371 371 __________O___ -1 26.10 125.50 7 4 18
1884 WP MM 06:00:00 NR 26.23 125.56 384 384 __________P___ -1 26.23 125.56 7 4 22
1884 WP MM 09:00:00 NR 26.43 125.65 402 402 __________P___ -1 26.43 125.65 7 4 24
1884 WP MM 12:00:00 NR 26.63 125.76 420 420 __________P___ -1 26.63 125.76 7 4 25
1884 WP MM 15:00:00 NR 26.83 125.86 438 438 __________P___ -1 26.83 125.86 7 4 26
1884 WP MM 16:00:00 NR 26.90 125.90 443 443 __________O___ -1 26.90 125.90 7 4 24
1884 WP MM 18:00:00 NR 27.03 125.96 456 449 __________P___ -1 27.03 125.96 7 4 23
1884 WP MM 21:00:00 NR 27.23 126.06 459 448 __________P___ -1 27.23 126.06 7 4 24
1884 WP MM 1884-08-08 00:00:00 NR 27.43 126.16 457 447 __________P___ -1 27.43 126.16 7 4 24
1884 WP MM 03:00:00 NR 27.63 126.26 456 452 __________P___ -1 27.63 126.26 7 5 24
1884 WP MM 04:00:00 NR 27.70 126.30 452 447 __________O___ -1 27.70 126.30 7 5 24
1884 WP MM 06:00:00 NR 27.84 126.37 456 449 __________P___ -1 27.84 126.37 7 5 23
1884 WP MM 09:00:00 NR 28.07 126.48 455 452 __________P___ -1 28.07 126.48 7 5 24
1884 WP MM 12:00:00 NR 28.29 126.60 458 452 __________P___ -1 28.29 126.60 7 5 27
1884 WP MM 15:00:00 NR 28.52 126.75 452 437 __________P___ -1 28.52 126.75 7 5 30
1884 WP MM 16:00:00 NR 28.60 126.80 437 415 __________O___ -1 28.60 126.80 7 5 33
1884 WP MM 18:00:00 NR 28.75 126.91 415 385 __________P___ -1 28.75 126.91 7 6 35
1884 WP MM 21:00:00 NR 28.98 127.10 385 356 __________P___ -1 28.98 127.10 7 6 38
1884 WP MM 1884-08-09 00:00:00 NR 29.20 127.31 356 327 __________P___ -1 29.20 127.31 7 6 39
1884 WP MM 03:00:00 NR 29.43 127.53 327 313 __________P___ -1 29.43 127.53 7 6 41
1884 WP MM 04:00:00 NR 29.50 127.60 313 __________O___ -1 29.50 127.60 7 6 45